createdAt,value
2023-02-11T00:49:05.198Z,94607.00
2023-02-11T00:59:05.191Z,94605.00
2023-02-11T01:00:05.270Z,94608.00
2023-02-11T01:01:05.403Z,94612.00
2023-02-11T01:02:05.500Z,94610.00
2023-02-11T01:03:05.528Z,94614.00
2023-02-11T01:04:05.576Z,94610.00
2023-02-11T01:05:05.676Z,94610.00
2023-02-11T01:06:06.717Z,94610.00
2023-02-11T01:07:05.809Z,94607.00
2023-02-11T01:08:05.900Z,94608.00
2023-02-11T01:09:06.147Z,94608.00
2023-02-11T01:10:06.039Z,94610.00
2023-02-11T01:11:06.121Z,94605.00
2023-02-11T01:12:06.183Z,94608.00
2023-02-11T01:13:06.266Z,94607.00
2023-02-11T01:14:06.346Z,94607.00
2023-02-11T01:15:06.403Z,94608.00
2023-02-11T01:16:06.498Z,94608.00
2023-02-11T01:17:06.532Z,94614.00
2023-02-11T01:18:06.588Z,94614.00
2023-02-11T01:19:06.645Z,94616.00
2023-02-11T01:20:06.690Z,94612.00
2023-02-11T01:21:06.735Z,94612.00
2023-02-11T01:22:06.785Z,94612.00
2023-02-11T01:23:06.856Z,94616.00
2023-02-11T01:24:06.897Z,94614.00
2023-02-11T01:25:07.028Z,94614.00
2023-02-11T01:26:07.052Z,94608.00
2023-02-11T01:27:07.121Z,94610.00
2023-02-11T01:28:07.194Z,94614.00
2023-02-11T01:29:07.253Z,94608.00
2023-02-11T01:30:07.324Z,94610.00
2023-02-11T01:31:07.417Z,94608.00
2023-02-11T01:32:07.472Z,94605.00
2023-02-11T01:33:07.526Z,94605.00
2023-02-11T01:34:07.582Z,94607.00
2023-02-11T01:35:07.642Z,94607.00
2023-02-11T01:36:07.838Z,94605.00
2023-02-11T01:37:07.801Z,94608.00
2023-02-11T01:38:07.869Z,94605.00
2023-02-11T01:39:07.945Z,94607.00
2023-02-11T01:40:08.032Z,94601.00
2023-02-11T01:41:08.123Z,94607.00
2023-02-11T01:42:08.210Z,94601.00
2023-02-11T01:43:08.341Z,94601.00
2023-02-11T01:44:08.374Z,94601.00
2023-02-11T01:45:08.446Z,94601.00
2023-02-11T01:46:08.538Z,94597.00
2023-02-11T01:48:08.675Z,94591.00
2023-02-11T01:49:08.782Z,94595.00
2023-02-11T01:50:08.868Z,94595.00
2023-02-11T01:51:08.902Z,94595.00
2023-02-11T01:52:08.980Z,94591.00
2023-02-11T01:54:09.121Z,94589.00
2023-02-11T02:11:10.299Z,94575.00
2023-02-11T02:18:10.856Z,94569.00
2023-02-11T03:20:15.268Z,94538.00
2023-02-11T03:31:15.300Z,94511.00
2023-02-11T03:32:15.262Z,94507.00
2023-02-11T03:33:15.212Z,94507.00
2023-02-11T03:34:15.315Z,94507.00
2023-02-11T03:35:15.290Z,94514.00
2023-02-11T03:36:15.320Z,94513.00
2023-02-11T03:37:15.354Z,94514.00
2023-02-11T03:38:15.373Z,94518.00
2023-02-11T03:39:15.387Z,94513.00
2023-02-11T03:40:15.433Z,94505.00
2023-02-11T03:41:15.445Z,94513.00
2023-02-11T03:42:15.469Z,94511.00
2023-02-11T03:43:15.498Z,94507.00
2023-02-11T03:44:16.261Z,94509.00
2023-02-11T03:45:15.559Z,94509.00
2023-02-11T03:46:15.646Z,94514.00
2023-02-11T03:47:15.616Z,94507.00
2023-02-11T03:48:15.633Z,94505.00
2023-02-11T03:49:15.663Z,94507.00
2023-02-11T03:50:15.698Z,94516.00
2023-02-11T03:51:15.703Z,94513.00
2023-02-11T03:55:15.813Z,94513.00
2023-02-11T03:56:15.859Z,94516.00
2023-02-11T03:57:15.840Z,94518.00
2023-02-11T03:58:15.857Z,94522.00
2023-02-11T03:59:15.886Z,94524.00
2023-02-11T04:00:15.900Z,94524.00
2023-02-11T04:01:15.991Z,94528.00
2023-02-11T04:02:15.976Z,94526.00
2023-02-11T04:03:16.058Z,94524.00
2023-02-11T04:04:16.026Z,94514.00
2023-02-11T04:05:16.052Z,94514.00
2023-02-11T04:06:16.090Z,94518.00
2023-02-11T04:07:16.101Z,94513.00
2023-02-11T04:08:16.133Z,94511.00
2023-02-11T04:09:16.154Z,94511.00
2023-02-11T04:10:16.186Z,94509.00
2023-02-11T04:11:16.296Z,94511.00
2023-02-11T04:12:16.240Z,94511.00
2023-02-11T04:13:16.252Z,94514.00
2023-02-11T04:14:16.282Z,94511.00
2023-02-11T04:15:16.305Z,94499.00
2023-02-11T04:16:16.347Z,94499.00
2023-02-11T04:17:16.361Z,94501.00
2023-02-11T04:18:16.393Z,94509.00
2023-02-11T04:19:16.423Z,94513.00
2023-02-11T04:20:16.449Z,94507.00
2023-02-11T04:21:16.473Z,94509.00
2023-02-11T04:22:16.500Z,94507.00
2023-02-11T04:23:16.511Z,94511.00
2023-02-11T04:24:16.549Z,94509.00
2023-02-11T04:25:16.576Z,94503.00
2023-02-11T04:26:16.787Z,94507.00
2023-02-11T04:27:16.636Z,94507.00
2023-02-11T04:28:16.692Z,94495.00
2023-02-11T04:29:16.701Z,94501.00
2023-02-11T04:30:16.703Z,94505.00
2023-02-11T04:31:16.816Z,94499.00
2023-02-11T04:32:16.749Z,94499.00
2023-02-11T04:33:16.773Z,94499.00
2023-02-11T04:34:16.806Z,94507.00
2023-02-11T04:35:16.822Z,94511.00
2023-02-11T04:36:16.856Z,94511.00
2023-02-11T04:37:16.880Z,94507.00
2023-02-11T04:38:16.898Z,94514.00
2023-02-11T04:39:16.929Z,94514.00
2023-02-11T04:40:16.958Z,94513.00
2023-02-11T04:41:16.992Z,94514.00
2023-02-11T04:42:17.009Z,94514.00
2023-02-11T04:43:17.054Z,94522.00
2023-02-11T04:44:17.152Z,94518.00
2023-02-11T04:45:17.088Z,94520.00
2023-02-11T04:46:17.828Z,94522.00
2023-02-11T04:47:17.152Z,94518.00
2023-02-11T04:49:17.204Z,94518.00
2023-02-11T04:50:17.240Z,94511.00
2023-02-11T08:43:25.858Z,94552.00
2023-02-11T08:47:25.176Z,94548.00
2023-02-11T08:48:25.277Z,94550.00
2023-02-11T08:49:25.253Z,94548.00
2023-02-11T08:50:25.280Z,94544.00
2023-02-11T08:51:25.398Z,94552.00
2023-02-11T09:24:26.349Z,94516.00
2023-02-11T09:32:26.589Z,94503.00
2023-02-11T14:05:35.212Z,94226.00
2023-02-11T14:06:35.366Z,94226.00
2023-02-11T14:07:35.407Z,94228.00
2023-02-11T14:08:37.662Z,94224.00
2023-02-11T14:09:35.424Z,94224.00
2023-02-11T14:10:35.469Z,94222.00
2023-02-11T14:11:35.476Z,94220.00
2023-02-11T14:12:35.472Z,94222.00
2023-02-11T14:13:35.478Z,94217.00
2023-02-11T14:14:35.487Z,94218.00
2023-02-11T14:15:35.501Z,94220.00
2023-02-11T14:16:38.506Z,94220.00
2023-02-11T14:17:35.656Z,94224.00
2023-02-11T14:18:35.530Z,94224.00
2023-02-11T14:19:35.563Z,94218.00
2023-02-11T14:20:35.581Z,94218.00
2023-02-11T14:21:35.573Z,94217.00
2023-02-11T14:22:35.578Z,94217.00
2023-02-11T14:23:35.596Z,94217.00
2023-02-11T14:24:35.614Z,94217.00
2023-02-11T14:25:35.973Z,94217.00
2023-02-11T14:26:35.635Z,94213.00
2023-02-11T14:27:35.653Z,94213.00
2023-02-11T14:28:35.723Z,94213.00
2023-02-11T14:29:35.668Z,94213.00
2023-02-11T14:30:35.787Z,94211.00
2023-02-11T14:31:35.784Z,94211.00
2023-02-11T14:32:35.695Z,94209.00
2023-02-11T14:33:35.713Z,94209.00
2023-02-11T14:34:35.716Z,94211.00
2023-02-11T14:35:35.733Z,94207.00
2023-02-11T14:36:35.744Z,94211.00
2023-02-11T14:37:35.750Z,94213.00
2023-02-11T14:38:35.771Z,94215.00
2023-02-11T14:39:35.769Z,94215.00
2023-02-11T14:40:35.875Z,94213.00
2023-02-11T14:41:35.795Z,94215.00
2023-02-11T14:42:35.805Z,94217.00
2023-02-11T14:43:35.822Z,94217.00
2023-02-11T14:44:35.827Z,94215.00
2023-02-11T14:45:35.841Z,94215.00
2023-02-11T14:46:35.908Z,94213.00
2023-02-11T14:47:35.860Z,94215.00
2023-02-11T14:48:35.877Z,94217.00
2023-02-11T14:49:35.903Z,94218.00
2023-02-11T14:50:35.962Z,94217.00
2023-02-11T14:51:36.011Z,94218.00
2023-02-11T14:52:36.070Z,94217.00
2023-02-11T14:53:36.160Z,94217.00
2023-02-11T14:54:36.979Z,94218.00
2023-02-11T14:55:36.295Z,94220.00
2023-02-11T14:56:36.356Z,94222.00
2023-02-11T14:57:36.422Z,94224.00
2023-02-11T14:58:36.500Z,94226.00
2023-02-11T14:59:36.577Z,94224.00
2023-02-11T15:00:36.601Z,94222.00
2023-02-11T15:01:36.732Z,94220.00
2023-02-11T15:02:36.855Z,94220.00
2023-02-11T15:03:36.856Z,94220.00
2023-02-11T15:04:36.910Z,94218.00
2023-02-11T15:05:36.945Z,94217.00
2023-02-11T15:06:36.981Z,94218.00
2023-02-11T15:07:37.033Z,94217.00
2023-02-11T15:08:37.050Z,94218.00
2023-02-11T15:09:37.088Z,94218.00
2023-02-11T15:10:37.086Z,94217.00
2023-02-11T15:11:37.141Z,94215.00
2023-02-11T15:12:37.157Z,94215.00
2023-02-11T15:13:37.200Z,94217.00
2023-02-11T15:14:37.234Z,94217.00
2023-02-11T15:15:37.262Z,94217.00
2023-02-11T15:16:37.257Z,94217.00
2023-02-11T15:17:37.276Z,94215.00
2023-02-11T15:18:37.334Z,94215.00
2023-02-11T15:19:37.426Z,94217.00
2023-02-11T15:20:37.360Z,94217.00
2023-02-11T15:21:37.501Z,94217.00
2023-02-11T15:22:37.455Z,94217.00
2023-02-11T15:23:37.494Z,94217.00
2023-02-11T15:24:37.536Z,94218.00
2023-02-11T15:25:37.613Z,94218.00
2023-02-11T15:26:37.679Z,94217.00
2023-02-11T15:27:37.739Z,94215.00
2023-02-11T15:28:37.851Z,94215.00
2023-02-11T15:29:37.836Z,94213.00
2023-02-11T15:30:37.879Z,94213.00
2023-02-11T15:31:38.008Z,94213.00
2023-02-11T15:32:37.964Z,94215.00
2023-02-11T15:34:38.058Z,94217.00
2023-02-11T15:35:38.071Z,94215.00
2023-02-11T15:36:38.074Z,94217.00
2023-02-11T15:37:38.112Z,94218.00
2023-02-11T15:38:38.148Z,94218.00
2023-02-11T15:39:38.190Z,94222.00
2023-02-11T15:40:38.230Z,94224.00
2023-02-11T15:41:38.241Z,94222.00
2023-02-11T15:42:52.070Z,94222.00
2023-02-11T15:44:38.286Z,94220.00
2023-02-11T15:45:38.297Z,94222.00
2023-02-11T15:46:38.378Z,94218.00
2023-02-11T15:47:38.317Z,94220.00
2023-02-11T15:48:38.348Z,94220.00
2023-02-11T15:49:38.337Z,94222.00
2023-02-11T15:50:38.359Z,94218.00
2023-02-11T15:51:38.351Z,94217.00
2023-02-11T15:52:38.360Z,94217.00
2023-02-11T15:53:38.387Z,94217.00
2023-02-11T15:54:38.392Z,94215.00
2023-02-11T15:55:38.398Z,94217.00
2023-02-11T15:56:38.416Z,94215.00
2023-02-11T15:57:38.426Z,94209.00
2023-02-11T15:58:38.449Z,94207.00
2023-02-11T15:59:38.457Z,94207.00
2023-02-11T16:00:38.473Z,94207.00
2023-02-11T16:01:38.546Z,94207.00
2023-02-11T16:02:38.504Z,94205.00
2023-02-11T16:03:38.510Z,94207.00
2023-02-11T16:04:38.563Z,94205.00
2023-02-11T16:05:38.535Z,94207.00
2023-02-11T16:06:38.550Z,94209.00
2023-02-11T16:07:39.521Z,94207.00
2023-02-11T16:08:38.567Z,94209.00
2023-02-11T16:09:38.580Z,94211.00
2023-02-11T16:10:38.600Z,94209.00
2023-02-11T16:11:38.607Z,94209.00
2023-02-11T16:12:38.632Z,94209.00
2023-02-11T16:13:38.645Z,94211.00
2023-02-11T16:14:38.656Z,94211.00
2023-02-11T16:15:38.682Z,94211.00
2023-02-11T16:16:38.831Z,94211.00
2023-02-11T16:17:38.749Z,94211.00
2023-02-11T16:18:39.867Z,94213.00
2023-02-11T16:19:38.815Z,94213.00
2023-02-11T16:20:38.844Z,94215.00
2023-02-11T16:21:38.862Z,94217.00
2023-02-11T16:22:38.897Z,94217.00
2023-02-11T16:23:38.926Z,94217.00
2023-02-11T16:24:38.966Z,94217.00
2023-02-11T16:25:39.090Z,94220.00
2023-02-11T16:26:39.017Z,94220.00
2023-02-11T16:27:39.047Z,94224.00
2023-02-11T16:28:39.151Z,94224.00
2023-02-11T16:29:39.188Z,94226.00
2023-02-11T16:30:39.150Z,94226.00
2023-02-11T16:31:39.344Z,94230.00
2023-02-11T16:32:39.221Z,94230.00
2023-02-11T16:33:39.517Z,94236.00
2023-02-11T16:34:39.288Z,94234.00
2023-02-11T16:35:39.318Z,94238.00
2023-02-11T16:36:39.356Z,94240.00
2023-02-11T16:37:39.475Z,94242.00
2023-02-11T16:38:39.453Z,94244.00
2023-02-11T16:39:39.462Z,94244.00
2023-02-11T16:40:39.560Z,94246.00
2023-02-11T16:41:39.533Z,94246.00
2023-02-11T16:42:39.556Z,94250.00
2023-02-11T16:43:39.606Z,94248.00
2023-02-11T16:44:39.637Z,94250.00
2023-02-11T17:20:40.869Z,94268.00
2023-02-11T17:21:40.910Z,94268.00
2023-02-11T19:03:45.186Z,94354.00
2023-02-11T19:04:45.344Z,94354.00
2023-02-11T19:05:45.265Z,94354.00
2023-02-11T19:06:45.315Z,94356.00
2023-02-11T19:07:45.377Z,94356.00
2023-02-11T19:08:45.415Z,94358.00
2023-02-11T19:09:45.523Z,94356.00
2023-02-11T19:10:45.517Z,94358.00
2023-02-11T19:11:45.562Z,94362.00
2023-02-11T19:12:45.684Z,94364.00
2023-02-11T19:13:45.663Z,94364.00
2023-02-11T19:14:45.722Z,94364.00
2023-02-11T19:15:45.849Z,94367.00
2023-02-11T19:16:45.859Z,94369.00
2023-02-11T19:17:45.855Z,94371.00
2023-02-11T19:18:45.903Z,94371.00
2023-02-11T19:19:45.960Z,94373.00
2023-02-11T19:20:47.091Z,94381.00
2023-02-11T19:21:46.062Z,94381.00
2023-02-11T19:22:46.117Z,94383.00
2023-02-11T19:23:46.156Z,94387.00
2023-02-11T19:24:46.223Z,94389.00
2023-02-11T19:55:47.889Z,94387.00
2023-02-11T19:56:47.945Z,94389.00
2023-02-11T19:57:48.010Z,94385.00
2023-02-11T19:59:48.097Z,94383.00
2023-02-11T20:00:48.253Z,94383.00
2023-02-11T20:01:48.275Z,94383.00
2023-02-11T20:02:48.305Z,94383.00
2023-02-11T20:03:48.314Z,94383.00
2023-02-11T20:04:48.377Z,94383.00
2023-02-11T20:05:48.429Z,94385.00
2023-02-11T20:06:48.495Z,94389.00
2023-02-11T20:07:48.548Z,94391.00
2023-02-11T20:08:48.598Z,94389.00
2023-02-11T20:09:48.656Z,94389.00
2023-02-11T20:10:48.709Z,94391.00
2023-02-11T20:11:48.751Z,94391.00
2023-02-11T20:12:48.809Z,94391.00
2023-02-11T20:14:48.927Z,94391.00
2023-02-11T20:15:49.040Z,94391.00
2023-02-11T20:16:50.169Z,94391.00
2023-02-11T20:17:49.100Z,94393.00
2023-02-11T20:18:49.145Z,94393.00
2023-02-11T20:19:49.170Z,94395.00
2023-02-11T20:20:49.222Z,94395.00
2023-02-11T20:21:49.280Z,94397.00
2023-02-11T20:22:49.430Z,94401.00
2023-02-11T20:23:49.378Z,94403.00
2023-02-11T20:24:49.440Z,94401.00
2023-02-11T20:25:49.649Z,94405.00
2023-02-11T20:26:49.546Z,94401.00
2023-02-11T20:27:49.616Z,94401.00
2023-02-11T20:28:49.665Z,94405.00
2023-02-11T20:29:49.721Z,94401.00
2023-02-11T20:30:49.806Z,94399.00
2023-02-11T20:31:50.022Z,94401.00
2023-02-11T20:32:49.889Z,94403.00
2023-02-11T20:33:50.591Z,94405.00
2023-02-11T20:34:49.999Z,94411.00
2023-02-11T20:35:50.241Z,94407.00
2023-02-11T20:36:50.141Z,94409.00
2023-02-11T20:37:50.231Z,94407.00
2023-02-11T20:38:50.218Z,94409.00
2023-02-11T20:39:50.281Z,94407.00
2023-02-11T20:40:50.321Z,94409.00
2023-02-11T20:41:50.388Z,94405.00
2023-02-11T20:42:50.438Z,94407.00
2023-02-11T20:43:50.492Z,94405.00
2023-02-11T20:44:50.562Z,94405.00
2023-02-11T20:45:50.895Z,94403.00
2023-02-11T20:46:50.798Z,94405.00
2023-02-11T20:47:50.713Z,94405.00
2023-02-11T20:48:50.773Z,94403.00
2023-02-11T20:49:50.844Z,94405.00
2023-02-11T20:50:50.899Z,94405.00
2023-02-11T20:51:50.962Z,94405.00
2023-02-11T20:52:51.113Z,94403.00
2023-02-11T20:53:51.067Z,94409.00
2023-02-11T20:54:51.113Z,94407.00
2023-02-11T20:55:51.487Z,94409.00
2023-02-11T20:56:51.349Z,94407.00
2023-02-11T20:57:51.276Z,94407.00
2023-02-11T20:58:51.352Z,94405.00
2023-02-11T20:59:51.391Z,94403.00
2023-02-11T21:00:51.454Z,94401.00
2023-02-11T21:01:51.524Z,94403.00
2023-02-11T21:02:51.563Z,94403.00
2023-02-11T21:03:51.631Z,94401.00
2023-02-11T21:04:51.679Z,94399.00
2023-02-11T21:05:51.829Z,94397.00
2023-02-11T21:06:51.799Z,94397.00
2023-02-11T21:07:51.852Z,94399.00
2023-02-11T21:08:51.920Z,94399.00
2023-02-11T21:09:51.963Z,94395.00
2023-02-11T21:10:52.091Z,94395.00
2023-02-11T21:11:52.089Z,94395.00
2023-02-11T21:12:52.141Z,94395.00
2023-02-11T21:13:52.193Z,94395.00
2023-02-11T21:14:52.250Z,94395.00
2023-02-11T21:15:52.579Z,94395.00
2023-02-11T21:16:52.360Z,94399.00
2023-02-11T21:17:52.411Z,94399.00
2023-02-11T21:18:52.494Z,94399.00
2023-02-11T21:19:52.541Z,94397.00
2023-02-11T21:20:52.598Z,94399.00
2023-02-11T21:21:52.653Z,94395.00
2023-02-11T21:22:52.720Z,94401.00
2023-02-11T21:23:52.777Z,94401.00
2023-02-11T21:24:52.901Z,94405.00
2023-02-11T21:25:53.114Z,94407.00
2023-02-11T21:26:52.961Z,94405.00
2023-02-11T21:27:53.007Z,94405.00
2023-02-11T21:28:53.074Z,94405.00
2023-02-11T21:29:54.771Z,94407.00
2023-02-11T21:30:53.264Z,94403.00
2023-02-11T21:31:53.287Z,94405.00
2023-02-11T21:32:53.304Z,94403.00
2023-02-11T21:33:53.361Z,94405.00
2023-02-11T21:34:53.428Z,94405.00
2023-02-11T21:35:53.923Z,94399.00
2023-02-11T21:36:53.546Z,94401.00
2023-02-11T21:37:53.604Z,94399.00
2023-02-11T21:38:54.116Z,94401.00
2023-02-11T21:39:53.723Z,94403.00
2023-02-11T21:40:53.790Z,94405.00
2023-02-11T21:41:53.857Z,94405.00
2023-02-11T21:42:53.914Z,94405.00
2023-02-11T21:43:53.981Z,94407.00
2023-02-11T21:44:54.019Z,94405.00
2023-02-11T21:45:54.430Z,94407.00
2023-02-11T21:46:54.196Z,94409.00
2023-02-11T21:47:54.206Z,94409.00
2023-02-11T21:48:54.348Z,94409.00
2023-02-11T21:49:54.335Z,94407.00
2023-02-11T21:50:54.396Z,94405.00
2023-02-11T21:51:54.476Z,94407.00
2023-02-11T21:52:54.527Z,94407.00
2023-02-11T21:53:54.601Z,94407.00
2023-02-11T21:54:54.651Z,94407.00
2023-02-11T21:55:54.995Z,94409.00
2023-02-11T21:56:55.133Z,94411.00
2023-02-11T21:57:54.833Z,94413.00
2023-02-11T21:58:54.884Z,94417.00
2023-02-11T21:59:54.952Z,94419.00
2023-02-11T22:00:55.112Z,94417.00
2023-02-11T22:01:55.074Z,94419.00
2023-02-11T22:02:55.135Z,94420.00
2023-02-11T22:03:55.295Z,94424.00
2023-02-11T22:04:55.308Z,94422.00
2023-02-11T22:05:55.684Z,94422.00
2023-02-11T22:06:55.394Z,94420.00
2023-02-11T22:07:55.456Z,94420.00
2023-02-11T22:08:55.523Z,94422.00
2023-02-11T22:09:55.592Z,94419.00
2023-02-11T22:10:55.637Z,94419.00
2023-02-11T22:11:55.699Z,94420.00
2023-02-11T22:12:55.773Z,94422.00
2023-02-11T22:13:55.837Z,94420.00
2023-02-11T22:14:55.899Z,94422.00
2023-02-11T22:15:56.318Z,94426.00
2023-02-11T22:16:56.655Z,94428.00
2023-02-11T22:17:56.087Z,94426.00
2023-02-11T22:18:56.151Z,94432.00
2023-02-11T22:19:56.224Z,94434.00
2023-02-11T22:20:56.284Z,94438.00
2023-02-11T22:21:56.362Z,94438.00
2023-02-11T22:22:56.418Z,94438.00
2023-02-11T22:23:56.465Z,94440.00
2023-02-11T22:24:56.531Z,94438.00
2023-02-11T22:25:56.774Z,94442.00
2023-02-11T22:26:56.656Z,94442.00
2023-02-11T22:27:56.797Z,94436.00
2023-02-11T22:28:56.790Z,94434.00
2023-02-11T22:29:56.854Z,94436.00
2023-02-11T22:30:56.968Z,94436.00
2023-02-11T22:31:57.040Z,94438.00
2023-02-11T22:32:57.053Z,94438.00
2023-02-11T22:33:57.119Z,94436.00
2023-02-11T22:34:57.194Z,94440.00
2023-02-11T22:35:57.413Z,94438.00
2023-02-11T22:36:57.342Z,94438.00
2023-02-11T22:37:57.395Z,94438.00
2023-02-11T22:38:57.459Z,94436.00
2023-02-11T22:39:57.524Z,94434.00
2023-02-11T22:40:57.582Z,94436.00
2023-02-11T22:41:57.640Z,94438.00
2023-02-11T22:42:57.711Z,94440.00
2023-02-11T22:43:57.769Z,94438.00
2023-02-11T22:44:57.843Z,94442.00
2023-02-11T22:45:58.153Z,94442.00
2023-02-11T22:46:57.955Z,94446.00
2023-02-11T22:47:58.024Z,94444.00
2023-02-11T22:48:58.096Z,94446.00
2023-02-11T22:49:58.157Z,94448.00
2023-02-11T22:50:58.229Z,94450.00
2023-02-11T22:51:58.297Z,94452.00
2023-02-11T22:52:58.361Z,94454.00
2023-02-11T22:53:58.437Z,94454.00
2023-02-11T22:54:58.523Z,94456.00
2023-02-11T22:55:58.545Z,94458.00
2023-02-11T22:56:58.641Z,94462.00
2023-02-11T22:57:58.684Z,94460.00
2023-02-11T22:58:58.741Z,94460.00
2023-02-11T22:59:58.813Z,94456.00
2023-02-11T23:00:58.871Z,94452.00
2023-02-11T23:01:59.128Z,94452.00
2023-02-11T23:02:59.076Z,94452.00
2023-02-11T23:03:59.085Z,94454.00
2023-02-11T23:04:59.150Z,94452.00
2023-02-11T23:05:59.221Z,94452.00
2023-02-11T23:06:59.288Z,94450.00
2023-02-11T23:07:59.356Z,94454.00
2023-02-11T23:09:00.136Z,94452.00
2023-02-11T23:09:59.498Z,94454.00
2023-02-11T23:10:59.583Z,94454.00
2023-02-11T23:11:59.686Z,94454.00
2023-02-11T23:12:59.691Z,94456.00
2023-02-11T23:13:59.767Z,94456.00
2023-02-11T23:14:59.844Z,94456.00
2023-02-11T23:15:59.891Z,94458.00
2023-02-11T23:17:00.041Z,94460.00
2023-02-11T23:18:00.032Z,94458.00
2023-02-11T23:19:00.113Z,94458.00
2023-02-11T23:20:00.165Z,94460.00
2023-02-11T23:21:00.228Z,94458.00
2023-02-11T23:22:00.292Z,94456.00
2023-02-11T23:23:00.492Z,94452.00
2023-02-11T23:24:00.431Z,94448.00
2023-02-11T23:25:00.477Z,94446.00
2023-02-11T23:26:00.548Z,94450.00
2023-02-11T23:27:00.608Z,94452.00
2023-02-11T23:28:00.713Z,94452.00
2023-02-11T23:29:00.757Z,94452.00
2023-02-11T23:30:01.092Z,94450.00
2023-02-11T23:31:00.910Z,94450.00
2023-02-11T23:32:01.012Z,94446.00
2023-02-11T23:33:01.029Z,94446.00
2023-02-11T23:34:01.093Z,94446.00
2023-02-11T23:35:01.167Z,94448.00
2023-02-11T23:36:01.250Z,94450.00
2023-02-11T23:37:01.295Z,94456.00
2023-02-11T23:38:01.350Z,94462.00
2023-02-11T23:39:01.419Z,94462.00
2023-02-11T23:40:01.494Z,94462.00
2023-02-11T23:41:01.555Z,94462.00
2023-02-11T23:42:01.645Z,94464.00
2023-02-11T23:43:01.691Z,94464.00
2023-02-11T23:44:01.842Z,94462.00
2023-02-11T23:45:01.818Z,94462.00
2023-02-11T23:46:01.922Z,94458.00
2023-02-11T23:47:01.977Z,94460.00
2023-02-11T23:48:02.031Z,94458.00
2023-02-11T23:49:02.108Z,94460.00
2023-02-11T23:50:02.179Z,94462.00
2023-02-11T23:51:02.247Z,94464.00
2023-02-11T23:52:02.310Z,94466.00
2023-02-11T23:53:02.380Z,94466.00
2023-02-11T23:54:02.482Z,94469.00
2023-02-11T23:55:02.521Z,94471.00
2023-02-11T23:56:02.593Z,94469.00
2023-02-11T23:57:02.676Z,94469.00
2023-02-11T23:58:02.722Z,94469.00
2023-02-11T23:59:02.787Z,94469.00
